sensor_id;sensor_type;location;lat;lon;timestamp;P1;durP1;ratioP1;P2;durP2;ratioP2
4835;SDS011;2432;51.226;6.904;2022-07-05T00:00:06;13.63;;;2.63;;
4835;SDS011;2432;51.226;6.904;2022-07-05T00:02:33;11.33;;;2.67;;
4835;SDS011;2432;51.226;6.904;2022-07-05T00:05:00;9.70;;;2.50;;
4835;SDS011;2432;51.226;6.904;2022-07-05T00:07:26;10.93;;;2.50;;
4835;SDS011;2432;51.226;6.904;2022-07-05T00:09:54;11.07;;;2.43;;
4835;SDS011;2432;51.226;6.904;2022-07-05T00:12:23;8.03;;;2.10;;
4835;SDS011;2432;51.226;6.904;2022-07-05T00:14:52;12.30;;;2.27;;
4835;SDS011;2432;51.226;6.904;2022-07-05T00:17:20;11.07;;;2.30;;
4835;SDS011;2432;51.226;6.904;2022-07-05T00:19:46;10.37;;;2.70;;
4835;SDS011;2432;51.226;6.904;2022-07-05T00:22:13;11.73;;;2.63;;
4835;SDS011;2432;51.226;6.904;2022-07-05T00:24:39;10.53;;;2.13;;
4835;SDS011;2432;51.226;6.904;2022-07-05T00:27:06;11.73;;;2.97;;
4835;SDS011;2432;51.226;6.904;2022-07-05T00:29:33;13.03;;;3.07;;
4835;SDS011;2432;51.226;6.904;2022-07-05T00:32:00;9.70;;;2.27;;
4835;SDS011;2432;51.226;6.904;2022-07-05T00:34:26;9.40;;;2.43;;
4835;SDS011;2432;51.226;6.904;2022-07-05T00:36:53;9.20;;;1.90;;
4835;SDS011;2432;51.226;6.904;2022-07-05T00:39:19;9.40;;;2.27;;
4835;SDS011;2432;51.226;6.904;2022-07-05T00:41:46;9.10;;;2.43;;
4835;SDS011;2432;51.226;6.904;2022-07-05T00:44:12;11.63;;;2.30;;
4835;SDS011;2432;51.226;6.904;2022-07-05T00:46:43;10.40;;;2.40;;
4835;SDS011;2432;51.226;6.904;2022-07-05T00:49:10;10.73;;;2.67;;
4835;SDS011;2432;51.226;6.904;2022-07-05T00:51:37;8.80;;;2.30;;
4835;SDS011;2432;51.226;6.904;2022-07-05T00:54:26;10.20;;;2.10;;
4835;SDS011;2432;51.226;6.904;2022-07-05T00:56:54;13.37;;;2.60;;
4835;SDS011;2432;51.226;6.904;2022-07-05T00:59:24;10.90;;;2.60;;
4835;SDS011;2432;51.226;6.904;2022-07-05T01:01:51;10.30;;;2.77;;
4835;SDS011;2432;51.226;6.904;2022-07-05T01:04:17;10.93;;;2.20;;
4835;SDS011;2432;51.226;6.904;2022-07-05T01:06:45;12.13;;;2.43;;
4835;SDS011;2432;51.226;6.904;2022-07-05T01:09:13;13.17;;;2.50;;
4835;SDS011;2432;51.226;6.904;2022-07-05T01:11:45;11.77;;;2.40;;
4835;SDS011;2432;51.226;6.904;2022-07-05T01:14:20;14.00;;;2.20;;
4835;SDS011;2432;51.226;6.904;2022-07-05T01:16:48;10.37;;;2.67;;
4835;SDS011;2432;51.226;6.904;2022-07-05T01:19:16;12.40;;;2.53;;
4835;SDS011;2432;51.226;6.904;2022-07-05T01:21:44;9.60;;;2.57;;
4835;SDS011;2432;51.226;6.904;2022-07-05T01:24:13;10.27;;;2.13;;
4835;SDS011;2432;51.226;6.904;2022-07-05T01:26:44;9.60;;;2.20;;
4835;SDS011;2432;51.226;6.904;2022-07-05T01:29:12;14.40;;;2.80;;
4835;SDS011;2432;51.226;6.904;2022-07-05T01:31:39;9.27;;;2.37;;
4835;SDS011;2432;51.226;6.904;2022-07-05T01:34:06;9.10;;;2.47;;
4835;SDS011;2432;51.226;6.904;2022-07-05T01:36:34;9.13;;;2.20;;
4835;SDS011;2432;51.226;6.904;2022-07-05T01:39:02;9.80;;;2.67;;
4835;SDS011;2432;51.226;6.904;2022-07-05T01:41:30;10.30;;;2.43;;
4835;SDS011;2432;51.226;6.904;2022-07-05T01:43:57;10.53;;;2.60;;
4835;SDS011;2432;51.226;6.904;2022-07-05T01:46:25;10.93;;;2.73;;
4835;SDS011;2432;51.226;6.904;2022-07-05T01:48:56;10.93;;;2.50;;
4835;SDS011;2432;51.226;6.904;2022-07-05T01:51:30;27.27;;;3.10;;
4835;SDS011;2432;51.226;6.904;2022-07-05T01:54:10;10.20;;;2.27;;
4835;SDS011;2432;51.226;6.904;2022-07-05T01:56:37;11.87;;;2.40;;
4835;SDS011;2432;51.226;6.904;2022-07-05T01:59:05;9.23;;;2.67;;
4835;SDS011;2432;51.226;6.904;2022-07-05T02:01:33;12.33;;;2.70;;
4835;SDS011;2432;51.226;6.904;2022-07-05T02:04:05;10.83;;;2.83;;
4835;SDS011;2432;51.226;6.904;2022-07-05T02:06:33;8.40;;;2.13;;
4835;SDS011;2432;51.226;6.904;2022-07-05T02:09:00;13.07;;;2.73;;
4835;SDS011;2432;51.226;6.904;2022-07-05T02:11:27;9.50;;;2.37;;
4835;SDS011;2432;51.226;6.904;2022-07-05T02:13:53;13.03;;;2.43;;
4835;SDS011;2432;51.226;6.904;2022-07-05T02:16:24;10.00;;;2.50;;
4835;SDS011;2432;51.226;6.904;2022-07-05T02:18:51;9.13;;;2.27;;
4835;SDS011;2432;51.226;6.904;2022-07-05T02:21:18;11.17;;;2.60;;
4835;SDS011;2432;51.226;6.904;2022-07-05T02:23:44;11.93;;;2.53;;
4835;SDS011;2432;51.226;6.904;2022-07-05T02:26:11;10.30;;;2.57;;
4835;SDS011;2432;51.226;6.904;2022-07-05T02:28:38;9.90;;;2.30;;
4835;SDS011;2432;51.226;6.904;2022-07-05T02:31:05;8.70;;;2.23;;
4835;SDS011;2432;51.226;6.904;2022-07-05T02:33:31;11.77;;;2.60;;
4835;SDS011;2432;51.226;6.904;2022-07-05T02:36:04;9.83;;;2.30;;
4835;SDS011;2432;51.226;6.904;2022-07-05T02:38:35;14.17;;;2.40;;
4835;SDS011;2432;51.226;6.904;2022-07-05T02:41:04;11.03;;;2.47;;
4835;SDS011;2432;51.226;6.904;2022-07-05T02:43:32;14.40;;;2.30;;
4835;SDS011;2432;51.226;6.904;2022-07-05T02:46:00;17.20;;;3.53;;
4835;SDS011;2432;51.226;6.904;2022-07-05T02:48:27;11.40;;;2.27;;
4835;SDS011;2432;51.226;6.904;2022-07-05T02:50:54;10.50;;;2.40;;
4835;SDS011;2432;51.226;6.904;2022-07-05T02:53:21;14.23;;;2.77;;
4835;SDS011;2432;51.226;6.904;2022-07-05T02:55:49;11.13;;;2.60;;
4835;SDS011;2432;51.226;6.904;2022-07-05T02:58:16;9.80;;;2.20;;
4835;SDS011;2432;51.226;6.904;2022-07-05T03:00:47;9.70;;;2.40;;
4835;SDS011;2432;51.226;6.904;2022-07-05T03:03:15;11.50;;;2.30;;
4835;SDS011;2432;51.226;6.904;2022-07-05T03:05:42;13.17;;;2.57;;
4835;SDS011;2432;51.226;6.904;2022-07-05T03:08:08;9.83;;;2.50;;
4835;SDS011;2432;51.226;6.904;2022-07-05T03:10:35;14.90;;;2.73;;
4835;SDS011;2432;51.226;6.904;2022-07-05T03:13:02;9.93;;;2.13;;
4835;SDS011;2432;51.226;6.904;2022-07-05T03:15:29;17.23;;;2.87;;
4835;SDS011;2432;51.226;6.904;2022-07-05T03:17:55;8.90;;;2.03;;
4835;SDS011;2432;51.226;6.904;2022-07-05T03:20:22;11.50;;;2.67;;
4835;SDS011;2432;51.226;6.904;2022-07-05T03:22:48;15.00;;;2.50;;
4835;SDS011;2432;51.226;6.904;2022-07-05T03:25:15;10.37;;;2.30;;
4835;SDS011;2432;51.226;6.904;2022-07-05T03:27:42;8.53;;;2.10;;
4835;SDS011;2432;51.226;6.904;2022-07-05T03:30:08;8.40;;;2.13;;
4835;SDS011;2432;51.226;6.904;2022-07-05T03:32:35;11.00;;;2.33;;
4835;SDS011;2432;51.226;6.904;2022-07-05T03:35:02;11.17;;;2.47;;
4835;SDS011;2432;51.226;6.904;2022-07-05T03:37:29;15.93;;;2.80;;
4835;SDS011;2432;51.226;6.904;2022-07-05T03:39:55;11.90;;;2.20;;
4835;SDS011;2432;51.226;6.904;2022-07-05T03:42:22;14.30;;;2.50;;
4835;SDS011;2432;51.226;6.904;2022-07-05T03:44:48;10.90;;;2.43;;
4835;SDS011;2432;51.226;6.904;2022-07-05T03:47:15;10.43;;;2.50;;
4835;SDS011;2432;51.226;6.904;2022-07-05T03:49:41;9.67;;;2.17;;
4835;SDS011;2432;51.226;6.904;2022-07-05T03:52:08;10.60;;;2.70;;
4835;SDS011;2432;51.226;6.904;2022-07-05T03:54:35;9.47;;;2.43;;
4835;SDS011;2432;51.226;6.904;2022-07-05T03:57:02;10.40;;;2.13;;
4835;SDS011;2432;51.226;6.904;2022-07-05T03:59:28;9.23;;;2.30;;
4835;SDS011;2432;51.226;6.904;2022-07-05T04:01:55;8.57;;;2.00;;
4835;SDS011;2432;51.226;6.904;2022-07-05T04:04:21;12.27;;;2.23;;
4835;SDS011;2432;51.226;6.904;2022-07-05T04:06:48;9.30;;;2.10;;
4835;SDS011;2432;51.226;6.904;2022-07-05T04:09:14;18.27;;;2.70;;
4835;SDS011;2432;51.226;6.904;2022-07-05T04:11:41;9.63;;;2.50;;
4835;SDS011;2432;51.226;6.904;2022-07-05T04:14:07;16.03;;;2.43;;
4835;SDS011;2432;51.226;6.904;2022-07-05T04:16:35;11.67;;;2.10;;
4835;SDS011;2432;51.226;6.904;2022-07-05T04:19:02;8.70;;;2.10;;
4835;SDS011;2432;51.226;6.904;2022-07-05T04:21:29;8.50;;;2.07;;
4835;SDS011;2432;51.226;6.904;2022-07-05T04:23:55;11.47;;;2.70;;
4835;SDS011;2432;51.226;6.904;2022-07-05T04:26:22;10.40;;;2.40;;
4835;SDS011;2432;51.226;6.904;2022-07-05T04:28:48;9.03;;;2.27;;
4835;SDS011;2432;51.226;6.904;2022-07-05T04:31:21;9.20;;;2.27;;
4835;SDS011;2432;51.226;6.904;2022-07-05T04:33:48;10.00;;;2.33;;
4835;SDS011;2432;51.226;6.904;2022-07-05T04:36:15;11.13;;;2.27;;
4835;SDS011;2432;51.226;6.904;2022-07-05T04:38:41;11.00;;;2.37;;
4835;SDS011;2432;51.226;6.904;2022-07-05T04:41:08;10.93;;;2.27;;
4835;SDS011;2432;51.226;6.904;2022-07-05T04:43:34;9.00;;;2.20;;
4835;SDS011;2432;51.226;6.904;2022-07-05T04:46:00;10.97;;;2.40;;
4835;SDS011;2432;51.226;6.904;2022-07-05T04:48:27;17.30;;;2.70;;
4835;SDS011;2432;51.226;6.904;2022-07-05T04:50:54;10.70;;;2.40;;
4835;SDS011;2432;51.226;6.904;2022-07-05T04:53:20;9.87;;;2.80;;
4835;SDS011;2432;51.226;6.904;2022-07-05T04:55:47;12.63;;;2.60;;
4835;SDS011;2432;51.226;6.904;2022-07-05T04:58:13;10.50;;;2.10;;
4835;SDS011;2432;51.226;6.904;2022-07-05T05:00:40;10.23;;;2.20;;
4835;SDS011;2432;51.226;6.904;2022-07-05T05:03:07;11.50;;;2.57;;
4835;SDS011;2432;51.226;6.904;2022-07-05T05:05:33;11.50;;;2.97;;
4835;SDS011;2432;51.226;6.904;2022-07-05T05:08:00;9.10;;;2.20;;
4835;SDS011;2432;51.226;6.904;2022-07-05T05:10:26;8.37;;;1.93;;
4835;SDS011;2432;51.226;6.904;2022-07-05T05:12:53;10.07;;;3.20;;
4835;SDS011;2432;51.226;6.904;2022-07-05T05:15:19;12.30;;;2.60;;
4835;SDS011;2432;51.226;6.904;2022-07-05T05:17:46;10.37;;;1.87;;
4835;SDS011;2432;51.226;6.904;2022-07-05T05:20:14;11.50;;;2.43;;
4835;SDS011;2432;51.226;6.904;2022-07-05T05:22:42;10.43;;;2.33;;
4835;SDS011;2432;51.226;6.904;2022-07-05T05:25:10;10.23;;;2.50;;
4835;SDS011;2432;51.226;6.904;2022-07-05T05:27:43;14.03;;;2.60;;
4835;SDS011;2432;51.226;6.904;2022-07-05T05:30:14;16.00;;;3.83;;
4835;SDS011;2432;51.226;6.904;2022-07-05T05:32:42;9.80;;;2.90;;
4835;SDS011;2432;51.226;6.904;2022-07-05T05:35:08;12.50;;;3.70;;
4835;SDS011;2432;51.226;6.904;2022-07-05T05:37:45;11.60;;;3.60;;
4835;SDS011;2432;51.226;6.904;2022-07-05T05:40:13;11.90;;;2.90;;
4835;SDS011;2432;51.226;6.904;2022-07-05T05:42:40;12.73;;;2.87;;
4835;SDS011;2432;51.226;6.904;2022-07-05T05:45:07;12.40;;;2.90;;
4835;SDS011;2432;51.226;6.904;2022-07-05T05:47:33;12.30;;;2.50;;
4835;SDS011;2432;51.226;6.904;2022-07-05T05:50:29;11.70;;;2.40;;
4835;SDS011;2432;51.226;6.904;2022-07-05T05:52:57;13.13;;;2.80;;
4835;SDS011;2432;51.226;6.904;2022-07-05T05:55:24;9.43;;;2.33;;
4835;SDS011;2432;51.226;6.904;2022-07-05T05:57:52;9.10;;;2.67;;
4835;SDS011;2432;51.226;6.904;2022-07-05T06:00:19;11.30;;;2.63;;
4835;SDS011;2432;51.226;6.904;2022-07-05T06:02:48;13.03;;;2.50;;
4835;SDS011;2432;51.226;6.904;2022-07-05T06:05:16;14.13;;;2.90;;
4835;SDS011;2432;51.226;6.904;2022-07-05T06:10:14;12.33;;;3.03;;
4835;SDS011;2432;51.226;6.904;2022-07-05T06:12:41;12.30;;;2.70;;
4835;SDS011;2432;51.226;6.904;2022-07-05T06:15:08;9.67;;;2.43;;
4835;SDS011;2432;51.226;6.904;2022-07-05T06:17:36;11.10;;;2.83;;
4835;SDS011;2432;51.226;6.904;2022-07-05T06:20:04;14.10;;;2.30;;
4835;SDS011;2432;51.226;6.904;2022-07-05T06:22:32;11.07;;;2.27;;
4835;SDS011;2432;51.226;6.904;2022-07-05T06:24:58;11.60;;;2.80;;
4835;SDS011;2432;51.226;6.904;2022-07-05T06:27:46;15.17;;;2.80;;
4835;SDS011;2432;51.226;6.904;2022-07-05T06:30:15;12.73;;;2.93;;
4835;SDS011;2432;51.226;6.904;2022-07-05T06:32:47;11.10;;;2.70;;
4835;SDS011;2432;51.226;6.904;2022-07-05T06:35:14;10.53;;;2.47;;
4835;SDS011;2432;51.226;6.904;2022-07-05T06:37:42;12.60;;;3.20;;
4835;SDS011;2432;51.226;6.904;2022-07-05T06:40:16;11.20;;;2.50;;
4835;SDS011;2432;51.226;6.904;2022-07-05T06:42:44;10.07;;;2.50;;
4835;SDS011;2432;51.226;6.904;2022-07-05T06:45:11;8.70;;;2.27;;
4835;SDS011;2432;51.226;6.904;2022-07-05T06:47:38;9.93;;;2.73;;
4835;SDS011;2432;51.226;6.904;2022-07-05T06:50:05;9.50;;;2.20;;
4835;SDS011;2432;51.226;6.904;2022-07-05T06:52:32;17.43;;;2.90;;
4835;SDS011;2432;51.226;6.904;2022-07-05T06:55:00;9.27;;;1.87;;
4835;SDS011;2432;51.226;6.904;2022-07-05T06:57:27;10.97;;;2.10;;
4835;SDS011;2432;51.226;6.904;2022-07-05T06:59:55;12.93;;;2.30;;
4835;SDS011;2432;51.226;6.904;2022-07-05T07:02:24;14.00;;;2.20;;
4835;SDS011;2432;51.226;6.904;2022-07-05T07:04:51;12.07;;;2.17;;
4835;SDS011;2432;51.226;6.904;2022-07-05T07:07:34;9.73;;;1.97;;
4835;SDS011;2432;51.226;6.904;2022-07-05T07:10:19;9.63;;;1.90;;
4835;SDS011;2432;51.226;6.904;2022-07-05T07:12:53;12.20;;;2.17;;
4835;SDS011;2432;51.226;6.904;2022-07-05T07:15:20;10.27;;;2.23;;
4835;SDS011;2432;51.226;6.904;2022-07-05T07:17:47;10.40;;;2.40;;
4835;SDS011;2432;51.226;6.904;2022-07-05T07:20:14;12.50;;;2.63;;
4835;SDS011;2432;51.226;6.904;2022-07-05T07:22:40;15.60;;;3.00;;
4835;SDS011;2432;51.226;6.904;2022-07-05T07:25:07;9.90;;;2.57;;
4835;SDS011;2432;51.226;6.904;2022-07-05T07:27:41;16.67;;;3.13;;
4835;SDS011;2432;51.226;6.904;2022-07-05T07:30:12;14.40;;;3.00;;
4835;SDS011;2432;51.226;6.904;2022-07-05T07:32:40;9.03;;;2.30;;
4835;SDS011;2432;51.226;6.904;2022-07-05T07:35:08;10.77;;;2.83;;
4835;SDS011;2432;51.226;6.904;2022-07-05T07:37:35;11.77;;;3.23;;
4835;SDS011;2432;51.226;6.904;2022-07-05T07:40:02;15.73;;;3.30;;
4835;SDS011;2432;51.226;6.904;2022-07-05T07:42:30;12.57;;;3.30;;
4835;SDS011;2432;51.226;6.904;2022-07-05T07:44:57;15.00;;;3.90;;
4835;SDS011;2432;51.226;6.904;2022-07-05T07:47:24;14.10;;;3.80;;
4835;SDS011;2432;51.226;6.904;2022-07-05T07:49:51;14.20;;;3.40;;
4835;SDS011;2432;51.226;6.904;2022-07-05T07:52:17;13.27;;;3.30;;
4835;SDS011;2432;51.226;6.904;2022-07-05T07:54:44;15.17;;;3.50;;
4835;SDS011;2432;51.226;6.904;2022-07-05T07:57:11;18.50;;;3.37;;
4835;SDS011;2432;51.226;6.904;2022-07-05T07:59:37;16.70;;;3.37;;
4835;SDS011;2432;51.226;6.904;2022-07-05T08:02:04;15.33;;;3.90;;
4835;SDS011;2432;51.226;6.904;2022-07-05T08:04:30;11.63;;;3.00;;
4835;SDS011;2432;51.226;6.904;2022-07-05T08:06:57;12.57;;;3.60;;
4835;SDS011;2432;51.226;6.904;2022-07-05T08:09:23;17.73;;;3.40;;
4835;SDS011;2432;51.226;6.904;2022-07-05T08:11:50;13.00;;;3.40;;
4835;SDS011;2432;51.226;6.904;2022-07-05T08:14:16;13.50;;;4.07;;
4835;SDS011;2432;51.226;6.904;2022-07-05T08:16:44;13.10;;;3.33;;
4835;SDS011;2432;51.226;6.904;2022-07-05T08:19:17;11.40;;;2.97;;
4835;SDS011;2432;51.226;6.904;2022-07-05T08:22:04;12.63;;;3.77;;
4835;SDS011;2432;51.226;6.904;2022-07-05T08:24:36;13.30;;;3.13;;
4835;SDS011;2432;51.226;6.904;2022-07-05T08:27:05;15.53;;;3.43;;
4835;SDS011;2432;51.226;6.904;2022-07-05T08:29:32;11.97;;;3.13;;
4835;SDS011;2432;51.226;6.904;2022-07-05T08:32:00;15.43;;;3.40;;
4835;SDS011;2432;51.226;6.904;2022-07-05T08:34:26;11.63;;;3.00;;
4835;SDS011;2432;51.226;6.904;2022-07-05T08:36:53;12.23;;;2.80;;
4835;SDS011;2432;51.226;6.904;2022-07-05T08:39:19;9.60;;;2.90;;
4835;SDS011;2432;51.226;6.904;2022-07-05T08:41:47;12.13;;;2.80;;
4835;SDS011;2432;51.226;6.904;2022-07-05T08:44:19;12.13;;;2.83;;
4835;SDS011;2432;51.226;6.904;2022-07-05T08:46:48;12.80;;;2.50;;
4835;SDS011;2432;51.226;6.904;2022-07-05T08:49:25;10.83;;;2.60;;
4835;SDS011;2432;51.226;6.904;2022-07-05T08:51:53;10.30;;;2.73;;
4835;SDS011;2432;51.226;6.904;2022-07-05T08:54:21;11.27;;;2.70;;
4835;SDS011;2432;51.226;6.904;2022-07-05T08:56:50;13.97;;;2.50;;
4835;SDS011;2432;51.226;6.904;2022-07-05T08:59:37;14.87;;;2.57;;
4835;SDS011;2432;51.226;6.904;2022-07-05T09:02:03;10.10;;;2.10;;
4835;SDS011;2432;51.226;6.904;2022-07-05T09:04:31;9.77;;;1.97;;
4835;SDS011;2432;51.226;6.904;2022-07-05T09:07:03;11.90;;;2.37;;
4835;SDS011;2432;51.226;6.904;2022-07-05T09:09:34;10.97;;;2.30;;
4835;SDS011;2432;51.226;6.904;2022-07-05T09:12:09;8.93;;;2.03;;
4835;SDS011;2432;51.226;6.904;2022-07-05T09:14:47;15.87;;;2.50;;
4835;SDS011;2432;51.226;6.904;2022-07-05T09:17:14;11.90;;;2.40;;
4835;SDS011;2432;51.226;6.904;2022-07-05T09:19:41;10.57;;;2.50;;
4835;SDS011;2432;51.226;6.904;2022-07-05T09:22:08;12.47;;;2.30;;
4835;SDS011;2432;51.226;6.904;2022-07-05T09:24:44;16.00;;;2.60;;
4835;SDS011;2432;51.226;6.904;2022-07-05T09:27:13;9.20;;;2.10;;
4835;SDS011;2432;51.226;6.904;2022-07-05T09:29:51;11.40;;;2.40;;
4835;SDS011;2432;51.226;6.904;2022-07-05T09:32:27;13.13;;;2.47;;
4835;SDS011;2432;51.226;6.904;2022-07-05T09:34:56;11.10;;;2.37;;
4835;SDS011;2432;51.226;6.904;2022-07-05T09:37:41;12.17;;;2.20;;
4835;SDS011;2432;51.226;6.904;2022-07-05T09:40:11;10.47;;;2.23;;
4835;SDS011;2432;51.226;6.904;2022-07-05T09:42:45;14.73;;;2.67;;
4835;SDS011;2432;51.226;6.904;2022-07-05T09:45:23;9.57;;;2.17;;
4835;SDS011;2432;51.226;6.904;2022-07-05T09:47:53;11.00;;;2.10;;
4835;SDS011;2432;51.226;6.904;2022-07-05T09:50:41;9.40;;;2.00;;
4835;SDS011;2432;51.226;6.904;2022-07-05T09:53:48;10.00;;;2.10;;
4835;SDS011;2432;51.226;6.904;2022-07-05T09:56:25;9.47;;;1.63;;
4835;SDS011;2432;51.226;6.904;2022-07-05T09:58:55;9.53;;;2.10;;
4835;SDS011;2432;51.226;6.904;2022-07-05T10:03:56;9.50;;;2.07;;
4835;SDS011;2432;51.226;6.904;2022-07-05T10:06:28;10.83;;;1.83;;
4835;SDS011;2432;51.226;6.904;2022-07-05T10:08:55;11.10;;;2.37;;
4835;SDS011;2432;51.226;6.904;2022-07-05T10:11:22;10.40;;;1.53;;
4835;SDS011;2432;51.226;6.904;2022-07-05T10:13:55;10.00;;;1.70;;
4835;SDS011;2432;51.226;6.904;2022-07-05T10:16:22;8.73;;;1.73;;
4835;SDS011;2432;51.226;6.904;2022-07-05T10:18:53;8.30;;;1.73;;
4835;SDS011;2432;51.226;6.904;2022-07-05T10:21:23;8.10;;;1.60;;
4835;SDS011;2432;51.226;6.904;2022-07-05T10:23:51;9.73;;;1.60;;
4835;SDS011;2432;51.226;6.904;2022-07-05T10:26:22;10.30;;;1.97;;
4835;SDS011;2432;51.226;6.904;2022-07-05T10:28:51;8.80;;;1.80;;
4835;SDS011;2432;51.226;6.904;2022-07-05T10:31:27;7.80;;;1.57;;
4835;SDS011;2432;51.226;6.904;2022-07-05T10:33:55;10.57;;;1.70;;
4835;SDS011;2432;51.226;6.904;2022-07-05T10:36:23;13.20;;;1.97;;
4835;SDS011;2432;51.226;6.904;2022-07-05T10:38:51;8.50;;;1.60;;
4835;SDS011;2432;51.226;6.904;2022-07-05T10:41:19;9.50;;;1.90;;
4835;SDS011;2432;51.226;6.904;2022-07-05T10:43:53;8.53;;;1.60;;
4835;SDS011;2432;51.226;6.904;2022-07-05T10:46:34;11.63;;;2.20;;
4835;SDS011;2432;51.226;6.904;2022-07-05T10:49:14;10.00;;;1.87;;
4835;SDS011;2432;51.226;6.904;2022-07-05T10:51:44;8.43;;;1.93;;
4835;SDS011;2432;51.226;6.904;2022-07-05T10:54:18;11.10;;;1.80;;
4835;SDS011;2432;51.226;6.904;2022-07-05T10:57:19;8.77;;;1.87;;
4835;SDS011;2432;51.226;6.904;2022-07-05T11:02:33;7.97;;;1.73;;
4835;SDS011;2432;51.226;6.904;2022-07-05T11:04:59;10.70;;;1.77;;
4835;SDS011;2432;51.226;6.904;2022-07-05T11:10:29;8.47;;;1.80;;
4835;SDS011;2432;51.226;6.904;2022-07-05T11:12:58;10.90;;;1.80;;
4835;SDS011;2432;51.226;6.904;2022-07-05T11:15:25;9.13;;;2.00;;
4835;SDS011;2432;51.226;6.904;2022-07-05T11:18:04;9.27;;;1.90;;
4835;SDS011;2432;51.226;6.904;2022-07-05T11:20:41;9.33;;;1.77;;
4835;SDS011;2432;51.226;6.904;2022-07-05T11:23:09;8.97;;;1.93;;
4835;SDS011;2432;51.226;6.904;2022-07-05T11:25:39;10.73;;;2.00;;
4835;SDS011;2432;51.226;6.904;2022-07-05T11:28:15;10.03;;;1.80;;
4835;SDS011;2432;51.226;6.904;2022-07-05T11:30:45;10.03;;;2.07;;
4835;SDS011;2432;51.226;6.904;2022-07-05T11:33:27;9.23;;;1.90;;
4835;SDS011;2432;51.226;6.904;2022-07-05T11:36:20;9.27;;;1.87;;
4835;SDS011;2432;51.226;6.904;2022-07-05T11:39:08;9.67;;;2.20;;
4835;SDS011;2432;51.226;6.904;2022-07-05T11:41:41;10.03;;;2.00;;
4835;SDS011;2432;51.226;6.904;2022-07-05T11:44:08;11.17;;;2.63;;
4835;SDS011;2432;51.226;6.904;2022-07-05T11:46:34;14.83;;;1.93;;
4835;SDS011;2432;51.226;6.904;2022-07-05T11:49:18;14.13;;;2.47;;
4835;SDS011;2432;51.226;6.904;2022-07-05T11:51:55;9.07;;;1.90;;
4835;SDS011;2432;51.226;6.904;2022-07-05T11:54:27;10.47;;;2.20;;
4835;SDS011;2432;51.226;6.904;2022-07-05T11:56:56;8.43;;;2.10;;
4835;SDS011;2432;51.226;6.904;2022-07-05T11:59:24;10.03;;;2.40;;
4835;SDS011;2432;51.226;6.904;2022-07-05T12:01:51;8.53;;;2.17;;
4835;SDS011;2432;51.226;6.904;2022-07-05T12:04:28;13.93;;;2.93;;
4835;SDS011;2432;51.226;6.904;2022-07-05T12:06:57;10.77;;;2.33;;
4835;SDS011;2432;51.226;6.904;2022-07-05T12:11:52;9.57;;;2.20;;
4835;SDS011;2432;51.226;6.904;2022-07-05T12:14:46;9.40;;;2.53;;
4835;SDS011;2432;51.226;6.904;2022-07-05T12:17:19;9.90;;;2.00;;
4835;SDS011;2432;51.226;6.904;2022-07-05T12:19:52;8.07;;;1.80;;
4835;SDS011;2432;51.226;6.904;2022-07-05T12:22:33;9.00;;;2.33;;
4835;SDS011;2432;51.226;6.904;2022-07-05T12:25:05;9.97;;;2.30;;
4835;SDS011;2432;51.226;6.904;2022-07-05T12:27:33;9.23;;;1.93;;
4835;SDS011;2432;51.226;6.904;2022-07-05T12:30:02;11.00;;;2.07;;
4835;SDS011;2432;51.226;6.904;2022-07-05T12:32:30;10.30;;;2.10;;
4835;SDS011;2432;51.226;6.904;2022-07-05T12:34:58;11.03;;;2.23;;
4835;SDS011;2432;51.226;6.904;2022-07-05T12:37:31;12.30;;;2.43;;
4835;SDS011;2432;51.226;6.904;2022-07-05T12:40:16;12.53;;;2.00;;
4835;SDS011;2432;51.226;6.904;2022-07-05T12:42:59;9.40;;;2.13;;
4835;SDS011;2432;51.226;6.904;2022-07-05T12:45:29;8.83;;;1.87;;
4835;SDS011;2432;51.226;6.904;2022-07-05T12:47:57;10.53;;;1.97;;
4835;SDS011;2432;51.226;6.904;2022-07-05T12:50:26;11.80;;;2.00;;
4835;SDS011;2432;51.226;6.904;2022-07-05T12:53:10;7.87;;;1.70;;
4835;SDS011;2432;51.226;6.904;2022-07-05T12:56:00;10.90;;;2.10;;
4835;SDS011;2432;51.226;6.904;2022-07-05T12:58:48;9.10;;;2.00;;
4835;SDS011;2432;51.226;6.904;2022-07-05T13:04:04;10.83;;;2.10;;
4835;SDS011;2432;51.226;6.904;2022-07-05T13:09:30;9.63;;;1.97;;
4835;SDS011;2432;51.226;6.904;2022-07-05T13:12:08;9.90;;;2.53;;
4835;SDS011;2432;51.226;6.904;2022-07-05T13:14:46;10.07;;;2.23;;
4835;SDS011;2432;51.226;6.904;2022-07-05T13:17:16;8.57;;;1.90;;
4835;SDS011;2432;51.226;6.904;2022-07-05T13:19:45;8.00;;;1.77;;
4835;SDS011;2432;51.226;6.904;2022-07-05T13:22:12;11.73;;;2.37;;
4835;SDS011;2432;51.226;6.904;2022-07-05T13:24:40;9.53;;;1.90;;
4835;SDS011;2432;51.226;6.904;2022-07-05T13:27:08;10.00;;;1.90;;
4835;SDS011;2432;51.226;6.904;2022-07-05T13:29:35;12.13;;;2.17;;
4835;SDS011;2432;51.226;6.904;2022-07-05T13:32:03;9.13;;;1.70;;
4835;SDS011;2432;51.226;6.904;2022-07-05T13:34:30;9.57;;;2.30;;
4835;SDS011;2432;51.226;6.904;2022-07-05T13:36:57;11.90;;;2.20;;
4835;SDS011;2432;51.226;6.904;2022-07-05T13:39:28;9.13;;;1.97;;
4835;SDS011;2432;51.226;6.904;2022-07-05T13:41:56;9.30;;;2.17;;
4835;SDS011;2432;51.226;6.904;2022-07-05T13:44:23;8.70;;;1.90;;
4835;SDS011;2432;51.226;6.904;2022-07-05T13:46:50;10.37;;;2.03;;
4835;SDS011;2432;51.226;6.904;2022-07-05T13:49:17;8.83;;;1.90;;
4835;SDS011;2432;51.226;6.904;2022-07-05T13:51:43;7.93;;;1.60;;
4835;SDS011;2432;51.226;6.904;2022-07-05T13:54:10;9.13;;;1.90;;
4835;SDS011;2432;51.226;6.904;2022-07-05T13:56:36;16.47;;;2.47;;
4835;SDS011;2432;51.226;6.904;2022-07-05T13:59:03;8.97;;;1.97;;
4835;SDS011;2432;51.226;6.904;2022-07-05T14:01:30;9.60;;;1.57;;
4835;SDS011;2432;51.226;6.904;2022-07-05T14:03:58;10.10;;;1.90;;
4835;SDS011;2432;51.226;6.904;2022-07-05T14:06:31;12.03;;;2.27;;
4835;SDS011;2432;51.226;6.904;2022-07-05T14:08:58;12.40;;;2.30;;
4835;SDS011;2432;51.226;6.904;2022-07-05T14:11:26;9.47;;;1.90;;
4835;SDS011;2432;51.226;6.904;2022-07-05T14:13:55;10.03;;;2.10;;
4835;SDS011;2432;51.226;6.904;2022-07-05T14:16:23;18.20;;;2.47;;
4835;SDS011;2432;51.226;6.904;2022-07-05T14:18:50;10.40;;;2.00;;
4835;SDS011;2432;51.226;6.904;2022-07-05T14:21:18;10.40;;;1.90;;
4835;SDS011;2432;51.226;6.904;2022-07-05T14:23:58;13.13;;;2.77;;
4835;SDS011;2432;51.226;6.904;2022-07-05T14:26:25;14.67;;;2.37;;
4835;SDS011;2432;51.226;6.904;2022-07-05T14:28:54;10.37;;;2.00;;
4835;SDS011;2432;51.226;6.904;2022-07-05T14:31:20;10.13;;;1.97;;
4835;SDS011;2432;51.226;6.904;2022-07-05T14:33:47;12.63;;;1.80;;
4835;SDS011;2432;51.226;6.904;2022-07-05T14:36:14;8.30;;;1.83;;
4835;SDS011;2432;51.226;6.904;2022-07-05T14:38:43;9.77;;;1.80;;
4835;SDS011;2432;51.226;6.904;2022-07-05T14:41:10;9.90;;;2.00;;
4835;SDS011;2432;51.226;6.904;2022-07-05T14:43:38;10.50;;;1.83;;
4835;SDS011;2432;51.226;6.904;2022-07-05T14:46:04;10.43;;;2.17;;
4835;SDS011;2432;51.226;6.904;2022-07-05T14:48:34;9.70;;;2.43;;
4835;SDS011;2432;51.226;6.904;2022-07-05T14:51:00;11.77;;;2.20;;
4835;SDS011;2432;51.226;6.904;2022-07-05T14:53:27;14.03;;;2.57;;
4835;SDS011;2432;51.226;6.904;2022-07-05T14:55:53;14.83;;;2.30;;
4835;SDS011;2432;51.226;6.904;2022-07-05T14:58:21;13.73;;;2.30;;
4835;SDS011;2432;51.226;6.904;2022-07-05T15:00:47;11.67;;;2.93;;
4835;SDS011;2432;51.226;6.904;2022-07-05T15:03:14;16.20;;;2.30;;
4835;SDS011;2432;51.226;6.904;2022-07-05T15:05:41;17.73;;;3.00;;
4835;SDS011;2432;51.226;6.904;2022-07-05T15:08:08;10.00;;;2.30;;
4835;SDS011;2432;51.226;6.904;2022-07-05T15:10:34;17.07;;;2.73;;
4835;SDS011;2432;51.226;6.904;2022-07-05T15:13:01;13.30;;;2.93;;
4835;SDS011;2432;51.226;6.904;2022-07-05T15:15:27;9.13;;;2.70;;
4835;SDS011;2432;51.226;6.904;2022-07-05T15:17:54;13.23;;;2.50;;
4835;SDS011;2432;51.226;6.904;2022-07-05T15:20:23;13.00;;;2.33;;
4835;SDS011;2432;51.226;6.904;2022-07-05T15:22:50;12.50;;;2.87;;
4835;SDS011;2432;51.226;6.904;2022-07-05T15:25:17;12.93;;;2.80;;
4835;SDS011;2432;51.226;6.904;2022-07-05T15:27:43;9.70;;;2.10;;
4835;SDS011;2432;51.226;6.904;2022-07-05T15:30:10;11.50;;;2.40;;
4835;SDS011;2432;51.226;6.904;2022-07-05T15:32:38;9.90;;;2.60;;
4835;SDS011;2432;51.226;6.904;2022-07-05T15:35:05;8.47;;;2.10;;
4835;SDS011;2432;51.226;6.904;2022-07-05T15:37:32;10.70;;;2.20;;